sensor_id;sensor_type;location;lat;lon;timestamp;P1;durP1;ratioP1;P2;durP2;ratioP2
29814;SDS011;16708;50.426;7.664;2023-11-21T00:09:34;18.80;;;8.20;;
29814;SDS011;16708;50.426;7.664;2023-11-21T00:24:03;14.80;;;5.70;;
29814;SDS011;16708;50.426;7.664;2023-11-21T00:38:41;15.60;;;5.30;;
29814;SDS011;16708;50.426;7.664;2023-11-21T00:53:19;18.20;;;7.10;;
29814;SDS011;16708;50.426;7.664;2023-11-21T01:07:57;24.80;;;8.00;;
29814;SDS011;16708;50.426;7.664;2023-11-21T01:22:36;36.20;;;10.10;;
29814;SDS011;16708;50.426;7.664;2023-11-21T01:37:14;45.30;;;13.30;;
29814;SDS011;16708;50.426;7.664;2023-11-21T01:51:53;63.30;;;16.10;;
29814;SDS011;16708;50.426;7.664;2023-11-21T02:06:31;71.00;;;17.20;;
29814;SDS011;16708;50.426;7.664;2023-11-21T02:21:06;86.40;;;18.00;;
29814;SDS011;16708;50.426;7.664;2023-11-21T02:35:41;74.40;;;16.10;;
29814;SDS011;16708;50.426;7.664;2023-11-21T02:50:13;58.00;;;13.30;;
29814;SDS011;16708;50.426;7.664;2023-11-21T03:04:50;38.40;;;9.70;;
29814;SDS011;16708;50.426;7.664;2023-11-21T03:19:25;32.10;;;8.80;;
29814;SDS011;16708;50.426;7.664;2023-11-21T03:34:02;35.30;;;9.50;;
29814;SDS011;16708;50.426;7.664;2023-11-21T03:48:47;35.70;;;10.10;;
29814;SDS011;16708;50.426;7.664;2023-11-21T04:03:23;38.60;;;9.80;;
29814;SDS011;16708;50.426;7.664;2023-11-21T04:18:02;33.80;;;9.20;;
29814;SDS011;16708;50.426;7.664;2023-11-21T04:32:31;35.70;;;9.30;;
29814;SDS011;16708;50.426;7.664;2023-11-21T04:47:06;43.30;;;10.30;;
29814;SDS011;16708;50.426;7.664;2023-11-21T05:01:44;46.40;;;10.80;;
29814;SDS011;16708;50.426;7.664;2023-11-21T05:16:21;53.60;;;12.10;;
29814;SDS011;16708;50.426;7.664;2023-11-21T05:31:00;67.60;;;14.40;;
29814;SDS011;16708;50.426;7.664;2023-11-21T05:45:29;76.20;;;18.60;;
29814;SDS011;16708;50.426;7.664;2023-11-21T06:00:06;77.30;;;19.60;;
29814;SDS011;16708;50.426;7.664;2023-11-21T06:14:39;80.80;;;18.20;;
29814;SDS011;16708;50.426;7.664;2023-11-21T06:29:16;86.40;;;21.00;;
29814;SDS011;16708;50.426;7.664;2023-11-21T06:43:55;92.10;;;20.90;;
29814;SDS011;16708;50.426;7.664;2023-11-21T06:58:34;119.40;;;24.20;;
29814;SDS011;16708;50.426;7.664;2023-11-21T07:13:11;108.30;;;23.20;;
29814;SDS011;16708;50.426;7.664;2023-11-21T07:27:49;111.50;;;24.80;;
29814;SDS011;16708;50.426;7.664;2023-11-21T07:42:27;113.00;;;24.80;;
29814;SDS011;16708;50.426;7.664;2023-11-21T07:57:06;121.40;;;24.30;;
29814;SDS011;16708;50.426;7.664;2023-11-21T08:11:43;103.40;;;24.50;;
29814;SDS011;16708;50.426;7.664;2023-11-21T08:26:21;97.60;;;24.30;;
29814;SDS011;16708;50.426;7.664;2023-11-21T08:41:00;86.10;;;22.10;;
29814;SDS011;16708;50.426;7.664;2023-11-21T08:55:39;77.00;;;23.60;;
29814;SDS011;16708;50.426;7.664;2023-11-21T09:10:18;69.30;;;23.70;;
29814;SDS011;16708;50.426;7.664;2023-11-21T09:24:57;50.80;;;18.00;;
29814;SDS011;16708;50.426;7.664;2023-11-21T09:39:34;43.70;;;16.00;;
29814;SDS011;16708;50.426;7.664;2023-11-21T09:54:12;33.40;;;15.20;;
29814;SDS011;16708;50.426;7.664;2023-11-21T10:08:48;30.20;;;13.20;;
29814;SDS011;16708;50.426;7.664;2023-11-21T10:23:28;24.20;;;10.90;;
29814;SDS011;16708;50.426;7.664;2023-11-21T10:38:05;22.80;;;11.00;;
29814;SDS011;16708;50.426;7.664;2023-11-21T11:07:23;23.20;;;10.20;;
29814;SDS011;16708;50.426;7.664;2023-11-21T11:51:22;20.70;;;9.00;;
29814;SDS011;16708;50.426;7.664;2023-11-21T12:05:59;22.60;;;9.20;;
29814;SDS011;16708;50.426;7.664;2023-11-21T12:20:32;23.40;;;9.90;;
29814;SDS011;16708;50.426;7.664;2023-11-21T12:35:08;32.20;;;12.10;;
29814;SDS011;16708;50.426;7.664;2023-11-21T12:49:40;23.70;;;10.20;;
29814;SDS011;16708;50.426;7.664;2023-11-21T13:04:18;27.60;;;11.00;;
29814;SDS011;16708;50.426;7.664;2023-11-21T13:18:56;29.90;;;10.50;;
29814;SDS011;16708;50.426;7.664;2023-11-21T13:33:33;38.50;;;11.10;;
29814;SDS011;16708;50.426;7.664;2023-11-21T13:48:06;43.10;;;13.00;;
29814;SDS011;16708;50.426;7.664;2023-11-21T14:02:45;22.10;;;9.80;;
29814;SDS011;16708;50.426;7.664;2023-11-21T14:17:25;24.20;;;9.60;;
29814;SDS011;16708;50.426;7.664;2023-11-21T14:32:03;24.40;;;9.70;;
29814;SDS011;16708;50.426;7.664;2023-11-21T14:46:42;23.50;;;10.10;;
29814;SDS011;16708;50.426;7.664;2023-11-21T15:01:20;28.30;;;10.90;;
29814;SDS011;16708;50.426;7.664;2023-11-21T15:15:56;31.10;;;12.30;;
29814;SDS011;16708;50.426;7.664;2023-11-21T15:30:34;32.80;;;12.90;;
29814;SDS011;16708;50.426;7.664;2023-11-21T15:45:11;36.60;;;12.90;;
29814;SDS011;16708;50.426;7.664;2023-11-21T15:59:47;38.80;;;13.70;;
29814;SDS011;16708;50.426;7.664;2023-11-21T16:14:16;36.70;;;13.80;;
29814;SDS011;16708;50.426;7.664;2023-11-21T16:28:54;44.00;;;15.10;;
29814;SDS011;16708;50.426;7.664;2023-11-21T16:43:31;50.90;;;17.20;;
29814;SDS011;16708;50.426;7.664;2023-11-21T16:58:10;55.90;;;17.80;;
29814;SDS011;16708;50.426;7.664;2023-11-21T17:12:48;56.00;;;17.50;;
29814;SDS011;16708;50.426;7.664;2023-11-21T17:27:27;42.80;;;14.90;;
29814;SDS011;16708;50.426;7.664;2023-11-21T17:42:06;48.20;;;15.60;;
29814;SDS011;16708;50.426;7.664;2023-11-21T17:56:45;38.50;;;14.10;;
29814;SDS011;16708;50.426;7.664;2023-11-21T18:11:24;47.70;;;15.30;;
29814;SDS011;16708;50.426;7.664;2023-11-21T18:26:03;45.90;;;15.40;;
29814;SDS011;16708;50.426;7.664;2023-11-21T18:40:38;32.20;;;11.50;;
29814;SDS011;16708;50.426;7.664;2023-11-21T18:55:15;23.70;;;9.20;;
29814;SDS011;16708;50.426;7.664;2023-11-21T19:09:53;13.90;;;6.60;;
29814;SDS011;16708;50.426;7.664;2023-11-21T19:24:32;13.00;;;6.10;;
29814;SDS011;16708;50.426;7.664;2023-11-21T19:39:08;14.00;;;6.70;;
29814;SDS011;16708;50.426;7.664;2023-11-21T19:53:43;16.20;;;7.20;;
29814;SDS011;16708;50.426;7.664;2023-11-21T20:08:19;8.50;;;4.50;;
29814;SDS011;16708;50.426;7.664;2023-11-21T20:23:05;9.70;;;5.30;;
29814;SDS011;16708;50.426;7.664;2023-11-21T20:37:49;11.40;;;6.30;;
29814;SDS011;16708;50.426;7.664;2023-11-21T20:52:32;12.40;;;6.50;;
